sensor_id;sensor_type;location;lat;lon;timestamp;P1;durP1;ratioP1;P2;durP2;ratioP2
85279;SDS011;75687;40.670;21.838;2024-02-14T00:01:28;2.70;;;2.00;;
85279;SDS011;75687;40.670;21.838;2024-02-14T00:03:59;2.60;;;1.90;;
85279;SDS011;75687;40.670;21.838;2024-02-14T00:06:29;3.30;;;2.30;;
85279;SDS011;75687;40.670;21.838;2024-02-14T00:09:05;3.60;;;2.10;;
85279;SDS011;75687;40.670;21.838;2024-02-14T00:11:36;2.70;;;1.90;;
85279;SDS011;75687;40.670;21.838;2024-02-14T00:14:06;3.80;;;3.10;;
85279;SDS011;75687;40.670;21.838;2024-02-14T00:16:37;7.60;;;3.80;;
85279;SDS011;75687;40.670;21.838;2024-02-14T00:19:08;6.10;;;3.50;;
85279;SDS011;75687;40.670;21.838;2024-02-14T00:21:38;5.70;;;3.10;;
85279;SDS011;75687;40.670;21.838;2024-02-14T00:24:09;5.00;;;2.90;;
85279;SDS011;75687;40.670;21.838;2024-02-14T00:26:40;5.50;;;3.50;;
85279;SDS011;75687;40.670;21.838;2024-02-14T00:29:10;5.50;;;3.40;;
85279;SDS011;75687;40.670;21.838;2024-02-14T00:31:41;5.50;;;3.20;;
85279;SDS011;75687;40.670;21.838;2024-02-14T00:34:12;5.30;;;3.30;;
85279;SDS011;75687;40.670;21.838;2024-02-14T00:36:43;5.20;;;3.90;;
85279;SDS011;75687;40.670;21.838;2024-02-14T00:39:16;4.00;;;2.50;;
85279;SDS011;75687;40.670;21.838;2024-02-14T00:41:47;3.50;;;2.80;;
85279;SDS011;75687;40.670;21.838;2024-02-14T00:44:17;4.00;;;2.20;;
85279;SDS011;75687;40.670;21.838;2024-02-14T00:46:47;3.80;;;2.50;;
85279;SDS011;75687;40.670;21.838;2024-02-14T00:49:18;6.70;;;3.10;;
85279;SDS011;75687;40.670;21.838;2024-02-14T00:51:49;3.50;;;2.40;;
85279;SDS011;75687;40.670;21.838;2024-02-14T00:54:20;3.30;;;2.20;;
85279;SDS011;75687;40.670;21.838;2024-02-14T00:56:50;3.30;;;2.50;;
85279;SDS011;75687;40.670;21.838;2024-02-14T00:59:21;2.50;;;2.10;;
85279;SDS011;75687;40.670;21.838;2024-02-14T01:01:52;3.90;;;2.40;;
85279;SDS011;75687;40.670;21.838;2024-02-14T01:04:23;3.40;;;2.90;;
85279;SDS011;75687;40.670;21.838;2024-02-14T01:06:54;3.60;;;2.50;;
85279;SDS011;75687;40.670;21.838;2024-02-14T01:09:24;3.00;;;2.70;;
85279;SDS011;75687;40.670;21.838;2024-02-14T01:11:55;5.80;;;1.90;;
85279;SDS011;75687;40.670;21.838;2024-02-14T01:14:26;3.40;;;3.10;;
85279;SDS011;75687;40.670;21.838;2024-02-14T01:16:56;2.80;;;1.90;;
85279;SDS011;75687;40.670;21.838;2024-02-14T01:19:27;3.10;;;2.70;;
85279;SDS011;75687;40.670;21.838;2024-02-14T01:21:58;2.70;;;2.20;;
85279;SDS011;75687;40.670;21.838;2024-02-14T01:24:29;2.60;;;2.00;;
85279;SDS011;75687;40.670;21.838;2024-02-14T01:27:00;4.40;;;2.30;;
85279;SDS011;75687;40.670;21.838;2024-02-14T01:29:32;3.60;;;2.30;;
85279;SDS011;75687;40.670;21.838;2024-02-14T01:32:04;3.20;;;2.50;;
85279;SDS011;75687;40.670;21.838;2024-02-14T01:34:35;3.50;;;2.30;;
85279;SDS011;75687;40.670;21.838;2024-02-14T01:37:05;3.20;;;2.50;;
85279;SDS011;75687;40.670;21.838;2024-02-14T01:39:38;3.50;;;2.30;;
85279;SDS011;75687;40.670;21.838;2024-02-14T01:42:08;3.90;;;2.00;;
85279;SDS011;75687;40.670;21.838;2024-02-14T01:44:39;5.00;;;2.40;;
85279;SDS011;75687;40.670;21.838;2024-02-14T01:47:11;4.60;;;2.30;;
85279;SDS011;75687;40.670;21.838;2024-02-14T01:49:42;3.30;;;2.10;;
85279;SDS011;75687;40.670;21.838;2024-02-14T01:52:12;3.00;;;2.10;;
85279;SDS011;75687;40.670;21.838;2024-02-14T01:54:45;2.90;;;2.00;;
85279;SDS011;75687;40.670;21.838;2024-02-14T01:57:15;3.40;;;2.20;;
85279;SDS011;75687;40.670;21.838;2024-02-14T01:59:46;3.50;;;2.50;;
85279;SDS011;75687;40.670;21.838;2024-02-14T02:02:17;4.50;;;2.60;;
85279;SDS011;75687;40.670;21.838;2024-02-14T02:04:48;3.30;;;3.00;;
85279;SDS011;75687;40.670;21.838;2024-02-14T02:07:20;4.00;;;2.70;;
85279;SDS011;75687;40.670;21.838;2024-02-14T02:09:50;3.20;;;2.00;;
85279;SDS011;75687;40.670;21.838;2024-02-14T02:12:21;2.60;;;2.00;;
85279;SDS011;75687;40.670;21.838;2024-02-14T02:14:55;3.70;;;2.20;;
85279;SDS011;75687;40.670;21.838;2024-02-14T02:17:27;3.70;;;2.20;;
85279;SDS011;75687;40.670;21.838;2024-02-14T02:19:57;4.50;;;2.60;;
85279;SDS011;75687;40.670;21.838;2024-02-14T02:22:29;3.40;;;2.20;;
85279;SDS011;75687;40.670;21.838;2024-02-14T02:25:03;3.20;;;2.40;;
85279;SDS011;75687;40.670;21.838;2024-02-14T02:27:35;3.40;;;2.90;;
85279;SDS011;75687;40.670;21.838;2024-02-14T02:30:07;3.70;;;2.30;;
85279;SDS011;75687;40.670;21.838;2024-02-14T02:32:38;3.40;;;2.30;;
85279;SDS011;75687;40.670;21.838;2024-02-14T02:35:09;3.50;;;2.40;;
85279;SDS011;75687;40.670;21.838;2024-02-14T02:37:40;3.10;;;2.00;;
85279;SDS011;75687;40.670;21.838;2024-02-14T02:40:12;3.90;;;2.50;;
85279;SDS011;75687;40.670;21.838;2024-02-14T02:42:42;2.90;;;2.10;;
85279;SDS011;75687;40.670;21.838;2024-02-14T02:45:13;3.00;;;2.50;;
85279;SDS011;75687;40.670;21.838;2024-02-14T02:47:44;2.50;;;1.80;;
85279;SDS011;75687;40.670;21.838;2024-02-14T02:50:16;2.70;;;1.90;;
85279;SDS011;75687;40.670;21.838;2024-02-14T02:52:49;3.60;;;1.90;;
85279;SDS011;75687;40.670;21.838;2024-02-14T02:55:19;3.80;;;2.20;;
85279;SDS011;75687;40.670;21.838;2024-02-14T02:57:50;2.60;;;1.90;;
85279;SDS011;75687;40.670;21.838;2024-02-14T03:00:21;2.60;;;2.00;;
85279;SDS011;75687;40.670;21.838;2024-02-14T03:02:52;4.90;;;2.10;;
85279;SDS011;75687;40.670;21.838;2024-02-14T03:05:22;2.40;;;1.90;;
85279;SDS011;75687;40.670;21.838;2024-02-14T03:07:53;2.00;;;1.60;;
85279;SDS011;75687;40.670;21.838;2024-02-14T03:10:26;3.70;;;2.40;;
85279;SDS011;75687;40.670;21.838;2024-02-14T03:12:57;2.70;;;2.00;;
85279;SDS011;75687;40.670;21.838;2024-02-14T03:15:28;2.50;;;1.80;;
85279;SDS011;75687;40.670;21.838;2024-02-14T03:18:00;2.10;;;1.90;;
85279;SDS011;75687;40.670;21.838;2024-02-14T03:23:06;2.40;;;1.90;;
85279;SDS011;75687;40.670;21.838;2024-02-14T03:25:36;2.90;;;1.70;;
85279;SDS011;75687;40.670;21.838;2024-02-14T03:28:07;3.10;;;1.60;;
85279;SDS011;75687;40.670;21.838;2024-02-14T03:30:38;2.20;;;1.90;;
85279;SDS011;75687;40.670;21.838;2024-02-14T03:33:08;2.10;;;1.40;;
85279;SDS011;75687;40.670;21.838;2024-02-14T03:35:39;3.00;;;1.90;;
85279;SDS011;75687;40.670;21.838;2024-02-14T03:38:09;2.80;;;1.70;;
85279;SDS011;75687;40.670;21.838;2024-02-14T03:40:42;2.50;;;1.90;;
85279;SDS011;75687;40.670;21.838;2024-02-14T03:43:14;2.40;;;1.60;;
85279;SDS011;75687;40.670;21.838;2024-02-14T03:45:44;2.30;;;1.40;;
85279;SDS011;75687;40.670;21.838;2024-02-14T03:48:15;2.40;;;1.60;;
85279;SDS011;75687;40.670;21.838;2024-02-14T03:50:46;2.20;;;1.70;;
85279;SDS011;75687;40.670;21.838;2024-02-14T03:53:16;2.50;;;1.70;;
85279;SDS011;75687;40.670;21.838;2024-02-14T03:55:47;2.70;;;1.70;;
85279;SDS011;75687;40.670;21.838;2024-02-14T03:58:18;1.90;;;1.50;;
85279;SDS011;75687;40.670;21.838;2024-02-14T04:00:50;1.70;;;1.40;;
85279;SDS011;75687;40.670;21.838;2024-02-14T04:03:21;2.20;;;1.80;;
85279;SDS011;75687;40.670;21.838;2024-02-14T04:05:52;1.90;;;1.40;;
85279;SDS011;75687;40.670;21.838;2024-02-14T04:08:23;2.30;;;1.50;;
85279;SDS011;75687;40.670;21.838;2024-02-14T04:10:54;2.90;;;1.90;;
85279;SDS011;75687;40.670;21.838;2024-02-14T04:13:24;2.40;;;1.80;;
85279;SDS011;75687;40.670;21.838;2024-02-14T04:15:55;2.60;;;1.50;;
85279;SDS011;75687;40.670;21.838;2024-02-14T04:18:25;2.80;;;1.80;;
85279;SDS011;75687;40.670;21.838;2024-02-14T04:20:57;4.60;;;2.20;;
85279;SDS011;75687;40.670;21.838;2024-02-14T04:23:27;2.50;;;1.80;;
85279;SDS011;75687;40.670;21.838;2024-02-14T04:25:57;2.40;;;1.70;;
85279;SDS011;75687;40.670;21.838;2024-02-14T04:28:28;2.90;;;2.10;;
85279;SDS011;75687;40.670;21.838;2024-02-14T04:30:59;2.70;;;2.10;;
85279;SDS011;75687;40.670;21.838;2024-02-14T04:33:29;2.10;;;1.80;;
85279;SDS011;75687;40.670;21.838;2024-02-14T04:36:00;2.90;;;1.50;;
85279;SDS011;75687;40.670;21.838;2024-02-14T04:38:32;3.10;;;2.00;;
85279;SDS011;75687;40.670;21.838;2024-02-14T04:41:03;2.30;;;1.60;;
85279;SDS011;75687;40.670;21.838;2024-02-14T04:43:34;3.00;;;1.90;;
85279;SDS011;75687;40.670;21.838;2024-02-14T04:46:05;2.50;;;2.20;;
85279;SDS011;75687;40.670;21.838;2024-02-14T04:48:36;4.60;;;3.00;;
85279;SDS011;75687;40.670;21.838;2024-02-14T04:51:07;9.10;;;5.00;;
85279;SDS011;75687;40.670;21.838;2024-02-14T04:53:38;5.10;;;2.70;;
85279;SDS011;75687;40.670;21.838;2024-02-14T04:56:08;4.10;;;2.40;;
85279;SDS011;75687;40.670;21.838;2024-02-14T04:58:39;4.60;;;2.60;;
85279;SDS011;75687;40.670;21.838;2024-02-14T05:01:09;3.40;;;2.10;;
85279;SDS011;75687;40.670;21.838;2024-02-14T05:03:40;3.00;;;2.70;;
85279;SDS011;75687;40.670;21.838;2024-02-14T05:06:11;2.80;;;2.20;;
85279;SDS011;75687;40.670;21.838;2024-02-14T05:08:42;3.60;;;2.10;;
85279;SDS011;75687;40.670;21.838;2024-02-14T05:11:13;3.50;;;2.40;;
85279;SDS011;75687;40.670;21.838;2024-02-14T05:13:45;3.00;;;2.10;;
85279;SDS011;75687;40.670;21.838;2024-02-14T05:16:18;2.80;;;2.30;;
85279;SDS011;75687;40.670;21.838;2024-02-14T05:18:49;2.80;;;2.00;;
85279;SDS011;75687;40.670;21.838;2024-02-14T05:21:20;2.30;;;1.70;;
85279;SDS011;75687;40.670;21.838;2024-02-14T05:23:50;2.00;;;1.70;;
85279;SDS011;75687;40.670;21.838;2024-02-14T05:26:21;2.70;;;1.90;;
85279;SDS011;75687;40.670;21.838;2024-02-14T05:28:52;3.00;;;2.40;;
85279;SDS011;75687;40.670;21.838;2024-02-14T05:31:22;3.50;;;2.00;;
85279;SDS011;75687;40.670;21.838;2024-02-14T05:33:53;2.60;;;2.30;;
85279;SDS011;75687;40.670;21.838;2024-02-14T05:36:24;2.20;;;1.90;;
85279;SDS011;75687;40.670;21.838;2024-02-14T05:38:55;3.20;;;2.60;;
85279;SDS011;75687;40.670;21.838;2024-02-14T05:41:25;5.00;;;2.30;;
85279;SDS011;75687;40.670;21.838;2024-02-14T05:43:56;4.80;;;2.70;;
85279;SDS011;75687;40.670;21.838;2024-02-14T05:46:27;3.50;;;2.50;;
85279;SDS011;75687;40.670;21.838;2024-02-14T05:48:57;2.80;;;2.00;;
85279;SDS011;75687;40.670;21.838;2024-02-14T05:51:32;3.50;;;2.10;;
85279;SDS011;75687;40.670;21.838;2024-02-14T05:54:29;2.40;;;1.90;;
85279;SDS011;75687;40.670;21.838;2024-02-14T05:56:59;1.90;;;1.60;;
85279;SDS011;75687;40.670;21.838;2024-02-14T05:59:32;3.10;;;2.30;;
85279;SDS011;75687;40.670;21.838;2024-02-14T06:02:04;3.00;;;1.90;;
85279;SDS011;75687;40.670;21.838;2024-02-14T06:04:36;3.20;;;2.90;;
85279;SDS011;75687;40.670;21.838;2024-02-14T06:07:07;3.30;;;2.30;;
85279;SDS011;75687;40.670;21.838;2024-02-14T06:09:40;3.20;;;2.00;;
85279;SDS011;75687;40.670;21.838;2024-02-14T06:12:11;3.50;;;2.30;;
85279;SDS011;75687;40.670;21.838;2024-02-14T06:14:42;3.30;;;2.70;;
85279;SDS011;75687;40.670;21.838;2024-02-14T06:17:14;2.50;;;2.30;;
85279;SDS011;75687;40.670;21.838;2024-02-14T06:19:45;2.70;;;1.90;;
85279;SDS011;75687;40.670;21.838;2024-02-14T06:22:19;3.50;;;2.40;;
85279;SDS011;75687;40.670;21.838;2024-02-14T06:24:53;3.40;;;2.20;;
85279;SDS011;75687;40.670;21.838;2024-02-14T06:27:30;3.50;;;2.40;;
85279;SDS011;75687;40.670;21.838;2024-02-14T06:30:11;2.80;;;2.10;;
85279;SDS011;75687;40.670;21.838;2024-02-14T06:32:56;3.90;;;2.40;;
85279;SDS011;75687;40.670;21.838;2024-02-14T06:35:39;5.50;;;3.30;;
85279;SDS011;75687;40.670;21.838;2024-02-14T06:38:24;3.30;;;3.00;;
85279;SDS011;75687;40.670;21.838;2024-02-14T06:41:06;5.20;;;2.70;;
85279;SDS011;75687;40.670;21.838;2024-02-14T06:43:49;4.20;;;2.40;;
85279;SDS011;75687;40.670;21.838;2024-02-14T06:46:30;4.20;;;2.20;;
85279;SDS011;75687;40.670;21.838;2024-02-14T06:49:10;3.00;;;2.10;;
85279;SDS011;75687;40.670;21.838;2024-02-14T06:51:52;3.30;;;2.20;;
85279;SDS011;75687;40.670;21.838;2024-02-14T06:54:31;3.50;;;1.80;;
85279;SDS011;75687;40.670;21.838;2024-02-14T06:57:11;2.90;;;2.40;;
85279;SDS011;75687;40.670;21.838;2024-02-14T06:59:53;3.70;;;2.70;;
85279;SDS011;75687;40.670;21.838;2024-02-14T07:02:31;3.20;;;2.40;;
85279;SDS011;75687;40.670;21.838;2024-02-14T07:05:08;3.90;;;3.10;;
85279;SDS011;75687;40.670;21.838;2024-02-14T07:07:47;3.00;;;2.50;;
85279;SDS011;75687;40.670;21.838;2024-02-14T07:10:25;3.00;;;2.30;;
85279;SDS011;75687;40.670;21.838;2024-02-14T07:13:06;5.80;;;2.70;;
85279;SDS011;75687;40.670;21.838;2024-02-14T07:15:43;3.90;;;2.80;;
85279;SDS011;75687;40.670;21.838;2024-02-14T07:18:22;2.70;;;2.00;;
85279;SDS011;75687;40.670;21.838;2024-02-14T07:21:03;3.10;;;2.60;;
85279;SDS011;75687;40.670;21.838;2024-02-14T07:23:41;2.20;;;1.80;;
85279;SDS011;75687;40.670;21.838;2024-02-14T07:26:17;2.90;;;2.40;;
85279;SDS011;75687;40.670;21.838;2024-02-14T07:28:54;2.40;;;2.00;;
85279;SDS011;75687;40.670;21.838;2024-02-14T07:31:36;2.30;;;1.80;;
85279;SDS011;75687;40.670;21.838;2024-02-14T07:34:13;3.50;;;1.80;;
85279;SDS011;75687;40.670;21.838;2024-02-14T07:36:51;2.30;;;1.70;;
85279;SDS011;75687;40.670;21.838;2024-02-14T07:39:25;2.00;;;1.60;;
85279;SDS011;75687;40.670;21.838;2024-02-14T07:41:58;1.80;;;1.70;;
85279;SDS011;75687;40.670;21.838;2024-02-14T07:44:32;2.80;;;1.60;;
85279;SDS011;75687;40.670;21.838;2024-02-14T07:47:06;6.90;;;2.10;;
85279;SDS011;75687;40.670;21.838;2024-02-14T07:49:38;2.50;;;1.80;;
85279;SDS011;75687;40.670;21.838;2024-02-14T07:52:09;2.30;;;1.80;;
85279;SDS011;75687;40.670;21.838;2024-02-14T07:54:40;4.20;;;1.70;;
85279;SDS011;75687;40.670;21.838;2024-02-14T07:57:11;2.50;;;1.90;;
85279;SDS011;75687;40.670;21.838;2024-02-14T07:59:41;2.30;;;1.70;;
85279;SDS011;75687;40.670;21.838;2024-02-14T08:02:12;2.40;;;1.90;;
85279;SDS011;75687;40.670;21.838;2024-02-14T08:04:42;2.20;;;1.70;;
85279;SDS011;75687;40.670;21.838;2024-02-14T08:07:13;1.90;;;1.60;;
85279;SDS011;75687;40.670;21.838;2024-02-14T08:09:44;2.10;;;1.70;;
85279;SDS011;75687;40.670;21.838;2024-02-14T08:12:14;2.20;;;1.90;;
85279;SDS011;75687;40.670;21.838;2024-02-14T08:14:45;2.90;;;2.10;;
85279;SDS011;75687;40.670;21.838;2024-02-14T08:17:15;2.90;;;1.80;;
85279;SDS011;75687;40.670;21.838;2024-02-14T08:19:46;5.00;;;2.00;;
85279;SDS011;75687;40.670;21.838;2024-02-14T08:22:17;3.20;;;2.20;;
85279;SDS011;75687;40.670;21.838;2024-02-14T08:24:49;2.80;;;1.70;;
85279;SDS011;75687;40.670;21.838;2024-02-14T08:27:19;4.40;;;2.60;;
85279;SDS011;75687;40.670;21.838;2024-02-14T08:29:50;3.10;;;2.30;;
85279;SDS011;75687;40.670;21.838;2024-02-14T08:32:20;2.80;;;1.80;;
85279;SDS011;75687;40.670;21.838;2024-02-14T08:34:54;2.50;;;2.00;;
85279;SDS011;75687;40.670;21.838;2024-02-14T08:37:25;2.50;;;1.80;;
85279;SDS011;75687;40.670;21.838;2024-02-14T08:39:55;2.00;;;1.70;;
85279;SDS011;75687;40.670;21.838;2024-02-14T08:42:27;2.70;;;2.00;;
85279;SDS011;75687;40.670;21.838;2024-02-14T08:44:57;2.40;;;2.10;;
85279;SDS011;75687;40.670;21.838;2024-02-14T08:47:28;2.70;;;2.00;;
85279;SDS011;75687;40.670;21.838;2024-02-14T08:49:58;2.80;;;2.10;;
85279;SDS011;75687;40.670;21.838;2024-02-14T08:52:29;2.10;;;1.70;;
85279;SDS011;75687;40.670;21.838;2024-02-14T08:55:00;3.10;;;2.10;;
85279;SDS011;75687;40.670;21.838;2024-02-14T08:57:31;2.50;;;2.00;;
85279;SDS011;75687;40.670;21.838;2024-02-14T09:00:01;3.40;;;2.40;;
85279;SDS011;75687;40.670;21.838;2024-02-14T09:02:34;3.70;;;2.10;;
85279;SDS011;75687;40.670;21.838;2024-02-14T09:05:05;3.00;;;2.10;;
85279;SDS011;75687;40.670;21.838;2024-02-14T09:07:37;2.90;;;2.00;;
85279;SDS011;75687;40.670;21.838;2024-02-14T09:10:10;3.60;;;2.90;;
85279;SDS011;75687;40.670;21.838;2024-02-14T09:12:41;2.40;;;1.90;;
85279;SDS011;75687;40.670;21.838;2024-02-14T09:15:12;3.30;;;1.90;;
85279;SDS011;75687;40.670;21.838;2024-02-14T09:17:42;4.70;;;3.90;;
85279;SDS011;75687;40.670;21.838;2024-02-14T09:20:14;3.20;;;2.50;;
85279;SDS011;75687;40.670;21.838;2024-02-14T09:22:45;2.90;;;2.00;;
85279;SDS011;75687;40.670;21.838;2024-02-14T09:25:16;3.50;;;2.70;;
85279;SDS011;75687;40.670;21.838;2024-02-14T09:27:46;2.90;;;2.00;;
85279;SDS011;75687;40.670;21.838;2024-02-14T09:30:16;2.00;;;1.70;;
85279;SDS011;75687;40.670;21.838;2024-02-14T09:32:51;2.20;;;1.70;;
85279;SDS011;75687;40.670;21.838;2024-02-14T09:35:23;2.80;;;2.00;;
85279;SDS011;75687;40.670;21.838;2024-02-14T09:37:53;3.30;;;2.10;;
85279;SDS011;75687;40.670;21.838;2024-02-14T09:40:24;2.30;;;2.00;;
85279;SDS011;75687;40.670;21.838;2024-02-14T09:42:55;2.20;;;1.70;;
85279;SDS011;75687;40.670;21.838;2024-02-14T09:45:26;2.90;;;2.10;;
85279;SDS011;75687;40.670;21.838;2024-02-14T09:47:57;2.20;;;1.70;;
85279;SDS011;75687;40.670;21.838;2024-02-14T09:50:28;2.40;;;1.80;;
85279;SDS011;75687;40.670;21.838;2024-02-14T09:52:59;2.50;;;2.00;;
85279;SDS011;75687;40.670;21.838;2024-02-14T09:55:30;3.90;;;2.60;;
85279;SDS011;75687;40.670;21.838;2024-02-14T09:58:01;3.00;;;2.30;;
85279;SDS011;75687;40.670;21.838;2024-02-14T10:00:35;4.40;;;2.90;;
85279;SDS011;75687;40.670;21.838;2024-02-14T10:03:07;4.00;;;2.80;;
85279;SDS011;75687;40.670;21.838;2024-02-14T10:05:45;4.60;;;3.30;;
85279;SDS011;75687;40.670;21.838;2024-02-14T10:08:17;4.20;;;3.20;;
85279;SDS011;75687;40.670;21.838;2024-02-14T10:10:57;6.10;;;3.30;;
85279;SDS011;75687;40.670;21.838;2024-02-14T10:13:28;5.50;;;2.80;;
85279;SDS011;75687;40.670;21.838;2024-02-14T10:16:00;5.50;;;4.10;;
85279;SDS011;75687;40.670;21.838;2024-02-14T10:18:32;4.70;;;3.00;;
85279;SDS011;75687;40.670;21.838;2024-02-14T10:21:03;4.80;;;4.30;;
85279;SDS011;75687;40.670;21.838;2024-02-14T10:23:34;5.30;;;3.80;;
85279;SDS011;75687;40.670;21.838;2024-02-14T10:26:05;8.30;;;4.80;;
85279;SDS011;75687;40.670;21.838;2024-02-14T10:28:36;9.80;;;5.00;;
85279;SDS011;75687;40.670;21.838;2024-02-14T10:31:11;3.60;;;3.00;;
85279;SDS011;75687;40.670;21.838;2024-02-14T10:33:42;4.20;;;2.90;;
85279;SDS011;75687;40.670;21.838;2024-02-14T10:36:12;3.80;;;2.70;;
85279;SDS011;75687;40.670;21.838;2024-02-14T10:38:43;2.80;;;2.20;;
85279;SDS011;75687;40.670;21.838;2024-02-14T10:41:14;2.50;;;2.10;;
85279;SDS011;75687;40.670;21.838;2024-02-14T10:43:45;3.30;;;2.10;;
85279;SDS011;75687;40.670;21.838;2024-02-14T10:46:18;3.30;;;2.60;;
85279;SDS011;75687;40.670;21.838;2024-02-14T10:48:51;4.00;;;2.90;;
85279;SDS011;75687;40.670;21.838;2024-02-14T10:51:26;3.50;;;2.20;;
85279;SDS011;75687;40.670;21.838;2024-02-14T10:53:59;4.10;;;3.70;;
85279;SDS011;75687;40.670;21.838;2024-02-14T10:56:31;3.60;;;3.20;;
85279;SDS011;75687;40.670;21.838;2024-02-14T10:59:02;3.30;;;2.20;;
85279;SDS011;75687;40.670;21.838;2024-02-14T11:01:33;2.90;;;2.10;;
85279;SDS011;75687;40.670;21.838;2024-02-14T11:04:04;3.30;;;2.60;;
85279;SDS011;75687;40.670;21.838;2024-02-14T11:06:44;5.20;;;3.30;;
85279;SDS011;75687;40.670;21.838;2024-02-14T11:09:15;4.90;;;2.80;;
85279;SDS011;75687;40.670;21.838;2024-02-14T11:11:45;3.00;;;2.30;;
85279;SDS011;75687;40.670;21.838;2024-02-14T11:14:17;3.60;;;2.30;;
85279;SDS011;75687;40.670;21.838;2024-02-14T11:16:48;3.20;;;2.70;;
85279;SDS011;75687;40.670;21.838;2024-02-14T11:19:29;3.50;;;2.50;;
85279;SDS011;75687;40.670;21.838;2024-02-14T11:22:18;4.30;;;2.90;;
85279;SDS011;75687;40.670;21.838;2024-02-14T11:24:49;3.90;;;2.70;;
85279;SDS011;75687;40.670;21.838;2024-02-14T11:27:21;3.00;;;2.50;;
85279;SDS011;75687;40.670;21.838;2024-02-14T11:32:29;5.10;;;3.00;;
85279;SDS011;75687;40.670;21.838;2024-02-14T11:35:02;4.90;;;3.40;;
85279;SDS011;75687;40.670;21.838;2024-02-14T11:41:44;3.80;;;3.00;;
85279;SDS011;75687;40.670;21.838;2024-02-14T11:44:14;4.50;;;3.00;;
85279;SDS011;75687;40.670;21.838;2024-02-14T11:46:45;3.60;;;2.90;;
85279;SDS011;75687;40.670;21.838;2024-02-14T11:49:15;5.80;;;4.00;;
85279;SDS011;75687;40.670;21.838;2024-02-14T11:51:47;3.90;;;3.30;;
85279;SDS011;75687;40.670;21.838;2024-02-14T11:54:17;3.50;;;2.90;;
85279;SDS011;75687;40.670;21.838;2024-02-14T11:56:48;5.60;;;3.90;;
85279;SDS011;75687;40.670;21.838;2024-02-14T11:59:19;4.90;;;3.10;;
85279;SDS011;75687;40.670;21.838;2024-02-14T12:01:51;5.00;;;2.90;;
85279;SDS011;75687;40.670;21.838;2024-02-14T12:04:25;7.70;;;4.20;;
85279;SDS011;75687;40.670;21.838;2024-02-14T12:06:56;5.10;;;3.50;;
85279;SDS011;75687;40.670;21.838;2024-02-14T12:09:27;5.90;;;4.20;;
85279;SDS011;75687;40.670;21.838;2024-02-14T12:11:58;5.50;;;3.20;;
85279;SDS011;75687;40.670;21.838;2024-02-14T12:14:29;3.90;;;3.00;;
85279;SDS011;75687;40.670;21.838;2024-02-14T12:17:03;4.10;;;2.90;;
85279;SDS011;75687;40.670;21.838;2024-02-14T12:19:35;3.00;;;2.50;;
85279;SDS011;75687;40.670;21.838;2024-02-14T12:22:09;5.40;;;3.50;;
85279;SDS011;75687;40.670;21.838;2024-02-14T12:24:46;5.70;;;3.30;;
85279;SDS011;75687;40.670;21.838;2024-02-14T12:27:17;4.60;;;2.80;;
85279;SDS011;75687;40.670;21.838;2024-02-14T12:29:48;3.70;;;2.60;;
85279;SDS011;75687;40.670;21.838;2024-02-14T12:32:19;3.30;;;3.00;;
85279;SDS011;75687;40.670;21.838;2024-02-14T12:34:49;3.50;;;2.60;;
85279;SDS011;75687;40.670;21.838;2024-02-14T12:37:20;3.60;;;2.30;;
85279;SDS011;75687;40.670;21.838;2024-02-14T12:39:51;4.20;;;2.40;;
85279;SDS011;75687;40.670;21.838;2024-02-14T12:42:23;3.90;;;3.20;;
85279;SDS011;75687;40.670;21.838;2024-02-14T12:44:55;3.80;;;3.20;;
85279;SDS011;75687;40.670;21.838;2024-02-14T12:47:26;4.10;;;3.30;;
85279;SDS011;75687;40.670;21.838;2024-02-14T12:50:00;7.20;;;3.00;;
85279;SDS011;75687;40.670;21.838;2024-02-14T12:52:30;5.40;;;3.50;;
85279;SDS011;75687;40.670;21.838;2024-02-14T12:55:03;4.70;;;3.40;;
85279;SDS011;75687;40.670;21.838;2024-02-14T12:57:34;3.90;;;2.80;;
85279;SDS011;75687;40.670;21.838;2024-02-14T13:00:06;3.30;;;2.40;;
85279;SDS011;75687;40.670;21.838;2024-02-14T13:02:37;4.10;;;3.00;;
85279;SDS011;75687;40.670;21.838;2024-02-14T13:05:08;2.80;;;2.10;;
85279;SDS011;75687;40.670;21.838;2024-02-14T13:07:39;4.60;;;2.60;;
85279;SDS011;75687;40.670;21.838;2024-02-14T13:10:10;4.60;;;3.10;;
85279;SDS011;75687;40.670;21.838;2024-02-14T13:12:40;2.90;;;2.50;;
85279;SDS011;75687;40.670;21.838;2024-02-14T13:15:12;3.90;;;2.50;;
85279;SDS011;75687;40.670;21.838;2024-02-14T13:17:44;3.80;;;2.90;;
85279;SDS011;75687;40.670;21.838;2024-02-14T13:20:14;2.40;;;2.00;;
85279;SDS011;75687;40.670;21.838;2024-02-14T13:22:46;3.40;;;2.40;;
85279;SDS011;75687;40.670;21.838;2024-02-14T13:25:17;3.60;;;2.60;;
85279;SDS011;75687;40.670;21.838;2024-02-14T13:27:48;3.80;;;2.90;;
85279;SDS011;75687;40.670;21.838;2024-02-14T13:30:19;3.00;;;2.30;;
85279;SDS011;75687;40.670;21.838;2024-02-14T13:32:49;5.60;;;3.40;;
85279;SDS011;75687;40.670;21.838;2024-02-14T13:35:20;2.50;;;2.10;;
85279;SDS011;75687;40.670;21.838;2024-02-14T13:37:51;4.80;;;2.70;;
85279;SDS011;75687;40.670;21.838;2024-02-14T13:40:22;4.30;;;2.00;;
85279;SDS011;75687;40.670;21.838;2024-02-14T13:42:52;4.10;;;2.50;;
85279;SDS011;75687;40.670;21.838;2024-02-14T13:45:23;7.40;;;4.30;;
85279;SDS011;75687;40.670;21.838;2024-02-14T13:48:01;8.40;;;5.50;;
85279;SDS011;75687;40.670;21.838;2024-02-14T13:50:33;3.20;;;2.60;;
85279;SDS011;75687;40.670;21.838;2024-02-14T13:53:06;5.10;;;3.20;;
85279;SDS011;75687;40.670;21.838;2024-02-14T13:55:36;5.20;;;3.50;;
85279;SDS011;75687;40.670;21.838;2024-02-14T13:58:07;4.00;;;3.00;;
85279;SDS011;75687;40.670;21.838;2024-02-14T14:00:43;4.00;;;2.50;;
85279;SDS011;75687;40.670;21.838;2024-02-14T14:03:14;6.70;;;2.50;;
85279;SDS011;75687;40.670;21.838;2024-02-14T14:05:47;2.40;;;1.80;;
85279;SDS011;75687;40.670;21.838;2024-02-14T14:08:18;3.60;;;2.20;;
85279;SDS011;75687;40.670;21.838;2024-02-14T14:10:49;3.40;;;2.50;;
85279;SDS011;75687;40.670;21.838;2024-02-14T14:13:20;3.10;;;2.50;;
85279;SDS011;75687;40.670;21.838;2024-02-14T14:15:52;5.10;;;2.50;;
85279;SDS011;75687;40.670;21.838;2024-02-14T14:18:23;4.00;;;3.00;;
85279;SDS011;75687;40.670;21.838;2024-02-14T14:20:54;4.00;;;3.00;;
85279;SDS011;75687;40.670;21.838;2024-02-14T14:23:24;3.50;;;2.90;;
85279;SDS011;75687;40.670;21.838;2024-02-14T14:25:56;3.70;;;2.70;;
85279;SDS011;75687;40.670;21.838;2024-02-14T14:28:27;3.40;;;2.40;;
85279;SDS011;75687;40.670;21.838;2024-02-14T14:30:57;3.70;;;2.70;;
85279;SDS011;75687;40.670;21.838;2024-02-14T14:33:29;3.50;;;2.40;;
85279;SDS011;75687;40.670;21.838;2024-02-14T14:36:00;4.10;;;3.30;;
85279;SDS011;75687;40.670;21.838;2024-02-14T14:38:31;5.80;;;2.90;;
85279;SDS011;75687;40.670;21.838;2024-02-14T14:41:02;4.60;;;3.30;;
85279;SDS011;75687;40.670;21.838;2024-02-14T14:43:33;4.40;;;3.30;;
85279;SDS011;75687;40.670;21.838;2024-02-14T14:46:04;4.40;;;3.00;;
85279;SDS011;75687;40.670;21.838;2024-02-14T14:48:34;4.70;;;2.80;;
85279;SDS011;75687;40.670;21.838;2024-02-14T14:51:05;5.50;;;3.90;;
85279;SDS011;75687;40.670;21.838;2024-02-14T14:53:37;4.10;;;3.40;;
85279;SDS011;75687;40.670;21.838;2024-02-14T14:56:07;5.30;;;3.40;;
85279;SDS011;75687;40.670;21.838;2024-02-14T14:58:38;5.70;;;4.10;;
85279;SDS011;75687;40.670;21.838;2024-02-14T15:01:11;5.50;;;3.90;;
85279;SDS011;75687;40.670;21.838;2024-02-14T15:03:42;6.10;;;3.80;;
85279;SDS011;75687;40.670;21.838;2024-02-14T15:06:12;5.60;;;3.90;;
85279;SDS011;75687;40.670;21.838;2024-02-14T15:08:43;7.50;;;4.20;;
85279;SDS011;75687;40.670;21.838;2024-02-14T15:11:15;5.50;;;3.80;;